createdAt,value
2023-06-19T00:01:41.888Z,8.75
2023-06-19T00:04:13.475Z,11.63
2023-06-19T00:06:41.534Z,7.28
2023-06-19T00:09:10.336Z,10.07
2023-06-19T00:14:06.350Z,8.65
2023-06-19T00:16:34.399Z,9.15
2023-06-19T00:19:04.757Z,8.23
2023-06-19T00:21:32.848Z,11.07
2023-06-19T00:24:00.872Z,10.95
2023-06-19T00:26:28.988Z,10.02
2023-06-19T00:28:57.773Z,9.63
2023-06-19T00:33:53.505Z,11.73
2023-06-19T00:36:22.569Z,9.75
2023-06-19T00:38:50.641Z,10.30
2023-06-19T00:41:19.697Z,10.50
2023-06-19T00:43:47.804Z,11.52
2023-06-19T00:46:15.935Z,7.28
2023-06-19T00:48:44.298Z,9.20
2023-06-19T00:51:12.344Z,9.07
2023-06-19T00:53:40.716Z,8.70
2023-06-19T00:56:10.156Z,9.77
2023-06-19T00:58:38.174Z,8.70
2023-06-19T01:01:09.247Z,10.35
2023-06-19T01:03:38.771Z,8.88
2023-06-19T01:08:56.792Z,8.60
2023-06-19T01:11:33.566Z,7.80
2023-06-19T01:14:16.970Z,8.65
2023-06-19T01:16:46.035Z,7.70
2023-06-19T01:19:19.150Z,7.90
2023-06-19T01:21:48.137Z,8.80
2023-06-19T01:24:16.231Z,9.45
2023-06-19T01:26:47.137Z,11.32
2023-06-19T01:29:17.454Z,9.73
2023-06-19T01:32:06.257Z,10.18
2023-06-19T01:34:38.547Z,9.73
2023-06-19T01:37:11.006Z,7.63
2023-06-19T01:39:39.335Z,8.55
2023-06-19T01:42:10.630Z,8.10
2023-06-19T01:44:39.046Z,9.60
2023-06-19T01:47:13.517Z,9.10
2023-06-19T01:49:44.174Z,11.00
2023-06-19T01:52:12.303Z,11.70
2023-06-19T01:54:40.719Z,8.70
2023-06-19T01:57:10.049Z,8.52
2023-06-19T01:59:38.114Z,8.18
2023-06-19T02:02:08.046Z,9.30
2023-06-19T02:04:36.168Z,6.25
2023-06-19T02:07:05.206Z,8.70
2023-06-19T02:09:33.080Z,8.02
2023-06-19T02:12:01.331Z,8.68
2023-06-19T02:14:29.254Z,7.88
2023-06-19T02:16:57.169Z,7.25
2023-06-19T02:19:25.115Z,7.55
2023-06-19T02:21:53.098Z,6.78
2023-06-19T02:24:20.992Z,6.53
2023-06-19T02:26:49.108Z,7.63
2023-06-19T02:29:17.247Z,7.85
2023-06-19T02:31:46.040Z,7.28
2023-06-19T02:34:14.142Z,6.47
2023-06-19T02:36:42.142Z,7.25
2023-06-19T02:39:10.815Z,6.75
2023-06-19T02:41:39.487Z,7.00
2023-06-19T02:46:35.205Z,7.30
2023-06-19T02:49:03.317Z,7.53
2023-06-19T02:52:53.250Z,4.50
2023-06-19T02:55:22.395Z,6.05
2023-06-19T02:57:50.344Z,5.22
2023-06-19T03:00:18.571Z,5.20
2023-06-19T03:02:49.604Z,5.60
2023-06-19T03:05:17.828Z,5.28
2023-06-19T03:07:46.215Z,4.90
2023-06-19T03:10:14.280Z,5.07
2023-06-19T03:12:43.021Z,4.93
2023-06-19T03:15:11.393Z,4.07
2023-06-19T03:17:43.048Z,4.55
2023-06-19T03:20:13.783Z,4.05
2023-06-19T03:22:47.838Z,5.05
2023-06-19T03:25:17.771Z,5.18
2023-06-19T03:27:45.885Z,5.18
2023-06-19T03:30:14.230Z,5.78
2023-06-19T03:32:44.062Z,5.15
2023-06-19T03:35:20.692Z,4.35
2023-06-19T03:37:49.106Z,4.55
2023-06-19T03:40:18.496Z,5.22
2023-06-19T03:42:49.942Z,5.10
2023-06-19T03:45:18.159Z,5.10
2023-06-19T03:47:47.252Z,4.57
2023-06-19T03:50:21.120Z,4.30
2023-06-19T03:52:50.485Z,4.82
2023-06-19T03:55:20.236Z,4.57
2023-06-19T03:57:51.441Z,4.82
2023-06-19T04:00:40.626Z,4.38
2023-06-19T04:03:10.740Z,4.30
2023-06-19T04:05:40.250Z,4.50
2023-06-19T04:08:08.307Z,4.28
2023-06-19T04:10:36.329Z,4.38
2023-06-19T04:13:08.236Z,4.40
2023-06-19T04:15:38.778Z,4.20
2023-06-19T04:18:06.992Z,4.18
2023-06-19T04:20:35.275Z,4.40
2023-06-19T04:23:03.339Z,4.63
2023-06-19T04:25:31.327Z,4.57
2023-06-19T04:27:59.391Z,4.30
2023-06-19T04:30:27.537Z,4.43
2023-06-19T04:32:56.184Z,4.95
2023-06-19T04:35:25.035Z,5.28
2023-06-19T04:37:54.413Z,5.60
2023-06-19T04:40:22.564Z,5.70
2023-06-19T04:42:50.674Z,6.40
2023-06-19T04:45:18.738Z,5.50
2023-06-19T04:47:53.438Z,5.70
2023-06-19T04:50:23.427Z,5.10
2023-06-19T04:52:52.855Z,4.88
2023-06-19T04:55:21.295Z,5.40
2023-06-19T04:57:49.519Z,5.30
2023-06-19T05:00:20.673Z,4.70
2023-06-19T05:02:49.253Z,4.47
2023-06-19T05:05:18.834Z,4.82
2023-06-19T05:07:48.499Z,4.20
2023-06-19T05:10:16.715Z,4.20
2023-06-19T05:12:44.754Z,3.85
2023-06-19T05:15:12.858Z,3.92
2023-06-19T05:17:40.939Z,3.50
2023-06-19T05:20:09.673Z,4.75
2023-06-19T05:22:38.448Z,4.45
2023-06-19T05:25:07.035Z,4.85
2023-06-19T05:27:35.013Z,4.07
2023-06-19T05:30:03.190Z,3.70
2023-06-19T05:32:32.005Z,3.85
2023-06-19T05:35:00.193Z,3.85
2023-06-19T05:37:28.483Z,4.10
2023-06-19T05:39:57.829Z,4.45
2023-06-19T05:42:26.093Z,4.43
2023-06-19T05:44:54.675Z,4.60
2023-06-19T05:47:24.874Z,4.30
2023-06-19T05:49:52.974Z,4.15
2023-06-19T05:52:22.293Z,3.78
2023-06-19T05:54:50.655Z,4.25
2023-06-19T05:57:22.202Z,4.32
2023-06-19T05:59:50.799Z,4.30
2023-06-19T06:02:20.484Z,4.00
2023-06-19T06:04:48.958Z,4.18
2023-06-19T06:07:17.213Z,3.50
2023-06-19T06:09:45.231Z,4.63
2023-06-19T06:12:13.400Z,4.10
2023-06-19T06:14:44.478Z,3.55
2023-06-19T06:17:12.547Z,4.43
2023-06-19T06:19:40.571Z,3.25
2023-06-19T06:22:08.717Z,4.45
2023-06-19T06:24:36.908Z,4.72
2023-06-19T06:29:32.902Z,3.63
2023-06-19T06:32:11.028Z,3.28
2023-06-19T06:34:39.204Z,3.58
2023-06-19T06:37:07.259Z,3.72
2023-06-19T06:39:35.396Z,4.03
2023-06-19T06:42:03.533Z,4.32
2023-06-19T06:44:31.531Z,3.70
2023-06-19T06:46:59.550Z,3.97
2023-06-19T06:49:27.886Z,3.38
2023-06-19T06:51:58.016Z,3.55
2023-06-19T06:54:26.553Z,3.85
2023-06-19T06:59:28.896Z,4.30
2023-06-19T07:02:00.311Z,4.75
2023-06-19T07:04:28.472Z,4.43
2023-06-19T07:06:56.499Z,3.63
2023-06-19T07:09:24.478Z,3.03
2023-06-19T07:11:53.918Z,4.38
2023-06-19T07:14:22.338Z,3.60
2023-06-19T07:16:51.934Z,3.28
2023-06-19T07:19:20.132Z,3.67
2023-06-19T07:21:48.408Z,3.10
2023-06-19T07:24:16.665Z,3.92
2023-06-19T07:26:44.728Z,3.60
2023-06-19T07:29:12.797Z,3.55
2023-06-19T07:31:40.856Z,2.90
2023-06-19T07:34:09.217Z,3.40
2023-06-19T07:36:37.361Z,2.90
2023-06-19T07:39:05.561Z,3.45
2023-06-19T07:41:33.635Z,3.22
2023-06-19T07:44:01.793Z,4.03
2023-06-19T07:46:29.862Z,3.10
2023-06-19T07:48:58.153Z,3.63
2023-06-19T07:51:26.296Z,4.25
2023-06-19T07:53:54.482Z,3.40
2023-06-19T07:56:22.568Z,3.35
2023-06-19T07:58:50.723Z,3.58
2023-06-19T08:01:18.759Z,3.08
2023-06-19T08:03:47.371Z,3.75
2023-06-19T08:06:17.631Z,3.25
2023-06-19T08:08:45.672Z,3.53
2023-06-19T08:11:13.641Z,3.88
2023-06-19T08:13:41.943Z,3.70
2023-06-19T08:16:11.797Z,3.42
2023-06-19T08:18:39.971Z,3.63
2023-06-19T08:21:07.963Z,3.47
2023-06-19T08:23:36.185Z,3.55
2023-06-19T08:28:35.627Z,3.58
2023-06-19T08:31:03.917Z,4.03
2023-06-19T08:33:31.975Z,3.20
2023-06-19T08:35:59.987Z,3.80
2023-06-19T08:38:30.419Z,4.43
2023-06-19T08:40:58.805Z,3.38
2023-06-19T08:43:26.927Z,3.33
2023-06-19T08:46:12.261Z,3.10
2023-06-19T08:48:40.607Z,4.93
2023-06-19T08:51:10.659Z,3.45
2023-06-19T08:53:47.080Z,3.45
2023-06-19T08:56:16.034Z,3.42
2023-06-19T08:58:44.754Z,3.58
2023-06-19T09:01:15.572Z,3.38
2023-06-19T09:03:43.680Z,2.90
2023-06-19T09:06:12.168Z,3.55
2023-06-19T09:08:40.276Z,2.97
2023-06-19T09:11:10.687Z,2.78
2023-06-19T09:13:39.337Z,3.17
2023-06-19T09:16:09.391Z,2.92
2023-06-19T09:18:50.128Z,3.45
2023-06-19T09:21:25.630Z,2.60
2023-06-19T09:23:53.933Z,3.30
2023-06-19T09:26:29.240Z,2.70
2023-06-19T09:31:35.306Z,2.90
2023-06-19T09:34:03.524Z,2.53
2023-06-19T09:36:33.487Z,3.15
2023-06-19T09:39:03.652Z,2.83
2023-06-19T09:41:32.175Z,3.00
2023-06-19T09:44:01.312Z,4.07
2023-06-19T09:46:34.985Z,4.25
2023-06-19T09:49:05.704Z,3.30
2023-06-19T09:51:38.545Z,2.80
2023-06-19T09:54:08.026Z,3.28
2023-06-19T09:56:37.201Z,3.55
2023-06-19T09:59:06.692Z,3.10
2023-06-19T10:01:34.925Z,2.97
2023-06-19T10:04:11.160Z,3.30
2023-06-19T10:06:50.033Z,2.95
2023-06-19T10:09:21.221Z,3.05
2023-06-19T10:11:53.592Z,3.67
2023-06-19T10:14:22.737Z,2.65
2023-06-19T10:16:51.037Z,2.83
2023-06-19T10:21:53.908Z,2.00
2023-06-19T10:24:25.609Z,2.85
2023-06-19T10:27:01.650Z,3.00
2023-06-19T10:29:48.699Z,2.70
2023-06-19T10:32:19.597Z,2.58
2023-06-19T10:34:50.292Z,3.05
2023-06-19T10:37:18.747Z,2.53
2023-06-19T10:42:14.549Z,3.42
2023-06-19T10:44:43.626Z,2.50
2023-06-19T10:47:11.820Z,2.45
2023-06-19T10:49:40.246Z,2.63
2023-06-19T10:52:08.851Z,2.40
2023-06-19T10:54:36.943Z,2.83
2023-06-19T10:57:06.270Z,2.05
2023-06-19T10:59:35.430Z,2.42
2023-06-19T11:02:03.845Z,2.20
2023-06-19T11:07:14.987Z,2.10
2023-06-19T11:09:45.094Z,2.60
2023-06-19T11:12:13.805Z,2.88
2023-06-19T11:14:43.187Z,2.40
2023-06-19T11:17:11.545Z,3.80
2023-06-19T11:19:43.297Z,2.40
2023-06-19T11:22:12.421Z,2.97
2023-06-19T11:24:47.636Z,3.08
2023-06-19T11:27:25.879Z,2.53
2023-06-19T11:30:00.845Z,2.22
2023-06-19T11:32:49.713Z,2.97
2023-06-19T11:35:18.389Z,3.13
2023-06-19T11:37:46.398Z,3.15
2023-06-19T11:40:16.552Z,3.03
2023-06-19T11:42:50.927Z,3.20
2023-06-19T11:45:19.558Z,3.88
2023-06-19T11:47:48.657Z,2.47
2023-06-19T11:50:18.559Z,2.70
2023-06-19T11:52:49.373Z,3.05
2023-06-19T11:55:17.648Z,3.00
2023-06-19T11:57:45.968Z,2.83
2023-06-19T12:02:43.239Z,2.70
2023-06-19T12:05:12.233Z,2.70
2023-06-19T12:07:40.668Z,3.55
2023-06-19T12:10:11.506Z,3.63
2023-06-19T12:12:40.106Z,3.50
2023-06-19T12:15:08.804Z,3.03
2023-06-19T12:17:37.021Z,2.85
2023-06-19T12:20:09.149Z,3.00
2023-06-19T12:22:37.213Z,3.00
2023-06-19T12:25:05.531Z,3.47
2023-06-19T12:27:34.650Z,3.47
2023-06-19T12:30:03.847Z,3.63
2023-06-19T12:32:34.124Z,3.20
2023-06-19T12:35:04.322Z,3.53
2023-06-19T12:37:34.532Z,3.33
2023-06-19T12:40:02.557Z,3.50
2023-06-19T12:42:30.640Z,3.35
2023-06-19T12:44:58.735Z,4.43
2023-06-19T12:47:26.856Z,3.83
2023-06-19T12:49:54.852Z,3.78
2023-06-19T12:52:22.891Z,3.45
2023-06-19T12:54:50.828Z,4.78
2023-06-19T12:57:18.986Z,3.72
2023-06-19T12:59:47.192Z,3.63
2023-06-19T13:04:44.023Z,4.15
2023-06-19T13:07:12.202Z,4.93
2023-06-19T13:09:43.402Z,4.00
2023-06-19T13:12:11.781Z,3.65
2023-06-19T13:17:08.277Z,6.45
2023-06-19T13:19:36.525Z,4.15
2023-06-19T13:22:04.925Z,4.68
2023-06-19T13:24:33.606Z,3.47
2023-06-19T13:27:01.705Z,3.75
2023-06-19T13:29:30.077Z,3.58
2023-06-19T13:32:05.657Z,5.07
2023-06-19T13:34:33.668Z,4.82
2023-06-19T13:37:01.784Z,4.05
2023-06-19T13:39:30.225Z,3.90
2023-06-19T13:42:00.737Z,3.55
2023-06-19T13:44:29.018Z,3.60
2023-06-19T13:46:57.105Z,3.38
2023-06-19T13:49:25.705Z,3.00
2023-06-19T13:51:54.581Z,3.83
2023-06-19T13:54:23.040Z,3.50
2023-06-19T13:56:52.511Z,3.47
2023-06-19T13:59:20.834Z,3.80
2023-06-19T14:01:49.138Z,3.58
2023-06-19T14:04:17.604Z,3.72
2023-06-19T14:06:46.358Z,3.08
2023-06-19T14:09:15.281Z,3.10
2023-06-19T14:11:44.192Z,3.78
2023-06-19T14:14:12.308Z,4.25
2023-06-19T14:16:40.614Z,3.30
2023-06-19T14:21:36.943Z,3.80
2023-06-19T14:24:06.171Z,3.90
2023-06-19T14:26:34.912Z,3.45
2023-06-19T14:29:03.226Z,3.22
2023-06-19T14:31:31.851Z,3.53
2023-06-19T14:34:00.371Z,3.47
2023-06-19T14:36:29.557Z,2.90
2023-06-19T14:38:58.122Z,3.28
2023-06-19T14:41:26.602Z,3.20
2023-06-19T14:43:55.545Z,3.97
2023-06-19T14:46:38.181Z,3.72
2023-06-19T14:49:09.562Z,3.80
2023-06-19T14:51:38.217Z,4.57
2023-06-19T14:54:07.166Z,4.90
2023-06-19T14:56:35.964Z,3.17
2023-06-19T14:59:05.069Z,3.28
2023-06-19T15:01:33.952Z,3.00
2023-06-19T15:04:02.281Z,3.60
2023-06-19T15:06:30.604Z,2.95
2023-06-19T15:11:29.349Z,3.92
2023-06-19T15:13:57.374Z,3.55
2023-06-19T15:16:26.746Z,2.67
2023-06-19T15:18:55.673Z,3.33
2023-06-19T15:21:23.954Z,3.78
2023-06-19T15:23:55.810Z,2.60
2023-06-19T15:26:24.241Z,2.55
2023-06-19T15:28:54.972Z,2.72
2023-06-19T15:31:24.110Z,3.05
2023-06-19T15:33:52.337Z,3.53
2023-06-19T15:36:20.467Z,3.50
2023-06-19T15:38:49.376Z,4.57
2023-06-19T15:41:17.391Z,2.97
2023-06-19T15:43:45.501Z,3.17
2023-06-19T15:48:44.890Z,2.83
2023-06-19T15:51:13.038Z,4.18
2023-06-19T15:53:40.988Z,3.22
2023-06-19T15:56:10.136Z,3.17
2023-06-19T15:58:38.477Z,3.17
2023-06-19T16:01:06.605Z,3.92
2023-06-19T16:03:34.695Z,3.40
2023-06-19T16:06:07.923Z,2.65
2023-06-19T16:08:36.683Z,4.18
2023-06-19T16:11:06.412Z,3.00
2023-06-19T16:13:34.589Z,3.88
2023-06-19T16:16:02.768Z,4.93
2023-06-19T16:18:30.888Z,6.57
2023-06-19T16:20:58.895Z,4.30
2023-06-19T16:23:27.131Z,2.97
2023-06-19T16:25:55.028Z,3.47
2023-06-19T16:28:23.228Z,5.38
2023-06-19T16:30:51.210Z,3.03
2023-06-19T16:33:19.360Z,3.75
2023-06-19T16:35:47.464Z,5.70
2023-06-19T16:38:15.474Z,3.55
2023-06-19T16:40:44.163Z,3.25
2023-06-19T16:43:12.237Z,3.08
2023-06-19T16:45:40.161Z,4.20
2023-06-19T16:48:08.287Z,4.90
2023-06-19T16:50:36.652Z,5.25
2023-06-19T16:53:04.827Z,4.38
2023-06-19T16:55:32.894Z,3.88
2023-06-19T16:58:00.978Z,3.80
2023-06-19T17:00:29.014Z,3.97
2023-06-19T17:02:58.471Z,3.53
2023-06-19T17:05:28.042Z,5.22
2023-06-19T17:07:56.164Z,3.88
2023-06-19T17:10:24.828Z,4.03
2023-06-19T17:12:53.206Z,4.70
2023-06-19T17:15:21.228Z,3.78
2023-06-19T17:17:49.486Z,4.53
2023-06-19T17:20:17.470Z,4.55
2023-06-19T17:22:45.579Z,3.92
2023-06-19T17:25:13.663Z,4.00
2023-06-19T17:27:42.219Z,4.22
2023-06-19T17:30:12.456Z,4.28
2023-06-19T17:32:42.045Z,3.97
2023-06-19T17:35:10.480Z,4.78
2023-06-19T17:37:38.933Z,3.92
2023-06-19T17:40:09.091Z,4.32
2023-06-19T17:42:38.657Z,3.78
2023-06-19T17:45:07.572Z,4.10
2023-06-19T17:47:35.884Z,3.58
2023-06-19T17:52:32.119Z,3.60
2023-06-19T17:55:00.222Z,4.60
2023-06-19T17:57:28.279Z,4.60
2023-06-19T17:59:56.339Z,4.00
2023-06-19T18:02:24.456Z,4.28
2023-06-19T18:04:53.000Z,4.07
2023-06-19T18:09:48.973Z,4.88
2023-06-19T18:12:18.650Z,4.72
2023-06-19T18:14:46.812Z,5.35
2023-06-19T18:17:15.143Z,4.32
2023-06-19T18:22:11.232Z,4.65
2023-06-19T18:24:39.311Z,5.13
2023-06-19T18:27:07.888Z,4.85
2023-06-19T18:29:36.095Z,5.25
2023-06-19T18:32:04.635Z,4.30
2023-06-19T18:37:00.450Z,5.03
2023-06-19T18:39:28.469Z,4.35
2023-06-19T18:41:56.524Z,4.40
2023-06-19T18:44:24.557Z,5.03
2023-06-19T18:46:52.685Z,4.78
2023-06-19T18:49:20.737Z,4.57
2023-06-19T18:51:48.865Z,4.88
2023-06-19T18:54:16.899Z,4.90
2023-06-19T18:56:45.279Z,5.38
2023-06-19T18:59:13.697Z,7.25
2023-06-19T19:01:41.916Z,4.68
2023-06-19T19:04:10.061Z,4.00
2023-06-19T19:06:38.059Z,5.07
2023-06-19T19:09:06.152Z,5.00
2023-06-19T19:11:35.317Z,4.97
2023-06-19T19:14:03.656Z,4.97
2023-06-19T19:16:31.889Z,4.65
2023-06-19T19:18:59.896Z,4.90
2023-06-19T19:21:27.968Z,4.45
2023-06-19T19:23:56.608Z,5.13
2023-06-19T19:26:24.882Z,5.15
2023-06-19T19:28:52.904Z,5.22
2023-06-19T19:31:20.874Z,4.15
2023-06-19T19:33:48.980Z,5.10
2023-06-19T19:36:17.032Z,5.05
2023-06-19T19:38:45.073Z,5.03
2023-06-19T19:41:13.188Z,5.45
2023-06-19T19:43:41.177Z,4.85
2023-06-19T19:46:11.658Z,4.72
2023-06-19T19:48:39.608Z,4.53
2023-06-19T19:51:07.679Z,4.53
2023-06-19T19:53:35.733Z,4.90
2023-06-19T19:56:03.725Z,4.38
2023-06-19T19:58:31.777Z,5.10
2023-06-19T20:00:59.714Z,5.25
2023-06-19T20:03:27.847Z,4.45
2023-06-19T20:05:56.416Z,4.55
2023-06-19T20:10:52.587Z,4.68
2023-06-19T20:13:23.650Z,5.00
2023-06-19T20:15:52.003Z,4.75
2023-06-19T20:18:20.168Z,5.20
2023-06-19T20:20:48.342Z,5.13
2023-06-19T20:23:16.322Z,5.07
2023-06-19T20:25:45.898Z,4.53
2023-06-19T20:28:13.979Z,4.50
2023-06-19T20:30:42.050Z,4.85
2023-06-19T20:33:10.270Z,4.68
2023-06-19T20:35:38.333Z,4.45
2023-06-19T20:38:06.364Z,4.65
2023-06-19T20:40:34.345Z,4.88
2023-06-19T20:43:02.481Z,4.95
2023-06-19T20:45:30.528Z,5.53
2023-06-19T20:48:00.619Z,5.80
2023-06-19T20:50:28.952Z,4.97
2023-06-19T20:52:57.172Z,4.82
2023-06-19T20:55:25.121Z,4.78
2023-06-19T20:57:53.424Z,5.53
2023-06-19T21:00:21.839Z,5.43
2023-06-19T21:05:17.797Z,5.10
2023-06-19T21:07:48.347Z,5.30
2023-06-19T21:10:16.552Z,5.18
2023-06-19T21:12:44.563Z,5.28
2023-06-19T21:15:12.536Z,4.78
2023-06-19T21:17:40.569Z,4.22
2023-06-19T21:20:11.952Z,5.05
2023-06-19T21:22:40.619Z,4.45
2023-06-19T21:25:09.179Z,5.53
2023-06-19T21:27:37.238Z,5.78
2023-06-19T21:30:06.108Z,4.47
2023-06-19T21:32:34.216Z,6.82
2023-06-19T21:35:02.467Z,4.53
2023-06-19T21:37:30.919Z,4.40
2023-06-19T21:39:58.973Z,5.45
2023-06-19T21:42:27.066Z,5.00
2023-06-19T21:44:55.120Z,4.80
2023-06-19T21:47:23.259Z,5.03
2023-06-19T21:49:51.360Z,4.78
2023-06-19T21:52:19.866Z,5.28
2023-06-19T21:57:15.714Z,5.40
2023-06-19T21:59:44.160Z,5.35
2023-06-19T22:02:12.238Z,4.75
2023-06-19T22:04:40.479Z,4.72
2023-06-19T22:07:08.542Z,5.45
2023-06-19T22:09:36.521Z,5.88
2023-06-19T22:12:04.906Z,5.40
2023-06-19T22:14:38.983Z,5.35
2023-06-19T22:17:07.863Z,4.85
2023-06-19T22:19:39.059Z,5.03
2023-06-19T22:22:07.745Z,5.32
2023-06-19T22:24:40.279Z,4.72
2023-06-19T22:27:08.601Z,5.13
2023-06-19T22:29:36.811Z,5.22
2023-06-19T22:32:05.276Z,5.03
2023-06-19T22:34:33.743Z,5.57
2023-06-19T22:37:03.793Z,5.22
2023-06-19T22:39:32.899Z,4.53
2023-06-19T22:42:01.942Z,4.60
2023-06-19T22:44:29.964Z,5.10
2023-06-19T22:46:58.018Z,4.90
2023-06-19T22:49:30.520Z,4.57
2023-06-19T22:51:58.682Z,4.97
2023-06-19T22:54:26.975Z,5.20
2023-06-19T22:56:55.220Z,5.53
2023-06-19T22:59:23.192Z,5.10
2023-06-19T23:01:51.332Z,4.65
2023-06-19T23:04:22.189Z,4.95
2023-06-19T23:06:52.435Z,4.72
2023-06-19T23:09:20.427Z,5.68
2023-06-19T23:11:49.791Z,5.35
2023-06-19T23:14:17.866Z,5.15
2023-06-19T23:16:45.903Z,5.72
2023-06-19T23:19:14.027Z,5.35
2023-06-19T23:21:42.306Z,5.15
2023-06-19T23:24:11.902Z,3.92
2023-06-19T23:26:40.048Z,5.20
2023-06-19T23:29:10.178Z,5.05
2023-06-19T23:31:41.792Z,6.45
2023-06-19T23:34:10.385Z,4.72
2023-06-19T23:36:38.410Z,5.20
2023-06-19T23:39:06.416Z,5.05
2023-06-19T23:41:34.497Z,4.82
2023-06-19T23:44:02.518Z,4.88
2023-06-19T23:46:30.643Z,5.10
2023-06-19T23:48:58.687Z,4.68
2023-06-19T23:51:26.743Z,6.25
2023-06-19T23:53:54.702Z,4.90
2023-06-19T23:56:22.738Z,5.07
2023-06-19T23:58:50.664Z,4.47
